RJSARJSR

Guest
Details From RJSA - AOMORI
To RJSR - ODATE NOSHIRO
Flight Number -
Tags generated
Created
Modified
Stats Distance 37 nm / 69 km
Max Altitude 200 ft / 61 m
Waypoints 3
Social Downloads 0
Likes 0
Share VATSIM

Download

Looking for another format? Having issues loading an existing format? Contact us
Advertisement - Login to hide

Notes

Basic altitude profile: - Ascent Rate: 2500ft/min - Ascent Speed: 250kts - Cruise Altitude: 35000ft - Cruise Speed: 420kts - Descent Rate: 1500ft/min - Descent Speed: 250kts Options: - Use NATs: yes - Use PACOTS: yes - Use low airways: yes - Use high airways: yes

Route

RJSA MRE RJSR

ID Type Via Altitude Latitude Longitude Leg Dist Tot Dist Heading (true) Name
O RJSA APT - 0 ft / 0 m 40.73327˚ 140.68859˚ - 0 nm - AOMORI
MRE VOR - 200 ft / 61 m 40.73879˚ 140.70533˚ 0 nm 0 nm 66° / 66° AOMORI VOR-DME
O RJSR APT - 0 ft / 0 m 40.19187˚ 140.37143˚ 36 nm 37 nm 205° / 205° ODATE NOSHIRO

Altitude Profile

Advertisement - Login to hide

RJSA

Details ICAO RJSA (AOJ)
Name AOMORI
Region Japan
Timezone Asia/Tokyo (UTC+9.0)
Stats Elevation 664 ft / 202 m (AMSL)
Location 40.733272° 140.688594°
Runways 1
Magnetic Variation 8.960° W

METAR

RJSA 280300Z 01007KT 320V040 9999 FEW015 SCT070 BKN/// 18/11 Q1011

Decode

TAF

TAF AMD RJSA 280044Z 2800/2906 03008KT 9999 FEW030 TEMPO 2800/2803 4000 TSRA BR FEW020 BKN030 FEW030CB TEMPO 2809/2821 3000 BR FEW001 BKN003

Decode

Departure Runways

ID Width Length Bearing (true) Bearing (mag) Surface Threshold Offset Overrun Length
06 200 ft / 61 m 9,838 ft / 2,999 m 51.79° 60.75° Asphalt 0 ft / 0 m 200 ft / 61 m
24 200 ft / 61 m 9,838 ft / 2,999 m 231.81° 240.77° Asphalt 0 ft / 0 m 200 ft / 61 m

RJSR

Details ICAO RJSR (ONJ)
Name ODATE NOSHIRO
Region Japan
Timezone Asia/Tokyo (UTC+9.0)
Stats Elevation 292 ft / 89 m (AMSL)
Location 40.191871° 140.371429°
Runways 1
Magnetic Variation 8.844° W

METAR

RJSR 280300Z 27006KT 200V310 9999 FEW050 SCT/// 23/11 Q1011

Decode

TAF

Not found

Destination Runways

ID Width Length Bearing (true) Bearing (mag) Surface Threshold Offset Overrun Length
11 148 ft / 45 m 6,548 ft / 1,996 m 100.04° 108.88° Asphalt 0 ft / 0 m 200 ft / 61 m
29 148 ft / 45 m 6,548 ft / 1,996 m 280.05° 288.89° Asphalt 0 ft / 0 m 200 ft / 61 m